Time;durP1;ratioP1;P1;durP2;ratioP2;P2;SDS_P1;SDS_P2;PMS_P1;PMS_P2;Temp;Humidity;BMP_temperature;BMP_pressure;BME280_temperature;BME280_humidity;BME280_pressure;Samples;Min_cycle;Max_cycle;Signal;HPM_P1;HPM_P2
2022/11/17 00:01:08;;;;;;;24.53;10.83;;;;;;;;;;4995633;28;20031;-79
2022/11/17 00:03:34;;;;;;;21.00;11.63;;;;;;;;;;4996148;28;20018;-79
2022/11/17 00:06:03;;;;;;;20.20;10.20;;;;;;;;;;4995739;28;20060;-78
2022/11/17 00:08:29;;;;;;;22.60;10.93;;;;;;;;;;4993943;28;20041;-78
2022/11/17 00:10:59;;;;;;;16.60;9.90;;;;;;;;;;4994566;28;20038;-79
2022/11/17 00:16:12;;;;;;;16.97;10.00;;;;;;;;;;4994035;28;20113;-79
2022/11/17 00:21:25;;;;;;;19.55;9.55;;;;;;;;;;4995364;28;20033;-78
2022/11/17 00:23:51;;;;;;;18.73;10.83;;;;;;;;;;4994507;28;20117;-79
2022/11/17 00:26:29;;;;;;;16.27;9.47;;;;;;;;;;5002841;28;20041;-78
2022/11/17 00:28:56;;;;;;;19.47;10.10;;;;;;;;;;5013385;28;20025;-77
2022/11/17 00:34:15;;;;;;;20.07;10.47;;;;;;;;;;5013910;28;20072;-77
2022/11/17 00:36:44;;;;;;;18.47;10.40;;;;;;;;;;5013758;28;20034;-77
2022/11/17 00:39:10;;;;;;;24.03;10.53;;;;;;;;;;5012660;28;20534;-80
2022/11/17 00:41:36;;;;;;;20.77;9.82;;;;;;;;;;5012346;28;20069;-77
2022/11/17 00:44:02;;;;;;;18.20;9.90;;;;;;;;;;5013122;28;20058;-78
2022/11/17 00:46:28;;;;;;;16.93;9.90;;;;;;;;;;5012912;28;20473;-78
2022/11/17 00:48:53;;;;;;;19.00;9.37;;;;;;;;;;5046183;28;20064;-77
2022/11/17 00:51:19;;;;;;;18.43;9.67;;;;;;;;;;5046708;28;20033;-78
2022/11/17 00:53:46;;;;;;;15.43;9.33;;;;;;;;;;5012659;28;20503;-79
2022/11/17 00:56:12;;;;;;;24.77;9.93;;;;;;;;;;5014172;28;20109;-78
2022/11/17 00:58:38;;;;;;;15.37;8.93;;;;;;;;;;5013659;28;20072;-78
2022/11/17 01:01:03;;;;;;;18.27;8.97;;;;;;;;;;5011647;28;20097;-79
2022/11/17 01:03:29;;;;;;;26.48;12.68;;;;;;;;;;5013377;28;20359;-77
2022/11/17 01:05:54;;;;;;;17.93;8.90;;;;;;;;;;5013974;28;20441;-78
2022/11/17 01:08:20;;;;;;;19.63;9.07;;;;;;;;;;5014111;28;20041;-78
2022/11/17 01:10:47;;;;;;;18.87;9.33;;;;;;;;;;5012086;28;20029;-78
2022/11/17 01:13:12;;;;;;;18.47;8.80;;;;;;;;;;5012107;28;20026;-77
2022/11/17 01:15:37;;;;;;;17.73;9.03;;;;;;;;;;5013484;28;20057;-78
2022/11/17 01:18:03;;;;;;;21.02;10.20;;;;;;;;;;5012954;28;20424;-77
2022/11/17 01:20:28;;;;;;;18.30;9.20;;;;;;;;;;5012181;28;20017;-78
2022/11/17 01:22:54;;;;;;;17.97;8.80;;;;;;;;;;5011774;28;20065;-78
2022/11/17 01:25:20;;;;;;;16.83;9.27;;;;;;;;;;5026661;28;20041;-78
2022/11/17 01:27:47;;;;;;;20.52;9.50;;;;;;;;;;4992062;28;20068;-78
2022/11/17 01:30:13;;;;;;;16.05;8.00;;;;;;;;;;4993532;28;20026;-77
2022/11/17 01:32:39;;;;;;;17.13;9.17;;;;;;;;;;4992225;28;20510;-79
2022/11/17 01:35:05;;;;;;;16.83;9.20;;;;;;;;;;4993096;28;20045;-77
2022/11/17 01:37:30;;;;;;;19.38;8.63;;;;;;;;;;4993146;28;20034;-78
2022/11/17 01:39:56;;;;;;;17.60;8.63;;;;;;;;;;4991371;28;20463;-78
2022/11/17 01:42:24;;;;;;;16.83;9.10;;;;;;;;;;4992082;28;20061;-77
2022/11/17 01:44:59;;;;;;;19.03;9.20;;;;;;;;;;4992095;28;20053;-77
2022/11/17 01:47:41;;;;;;;16.50;7.82;;;;;;;;;;4992283;28;20397;-77
2022/11/17 01:50:32;;;;;;;15.18;8.65;;;;;;;;;;4991571;28;20035;-77
2022/11/17 01:53:01;;;;;;;16.67;8.87;;;;;;;;;;4991427;28;20486;-78
2022/11/17 01:55:34;;;;;;;14.67;8.07;;;;;;;;;;4991666;28;20122;-77
2022/11/17 01:58:13;;;;;;;14.17;7.63;;;;;;;;;;4992880;28;20038;-77
2022/11/17 02:00:39;;;;;;;16.57;7.23;;;;;;;;;;4992689;28;20025;-76
2022/11/17 02:03:06;;;;;;;14.00;7.80;;;;;;;;;;4993507;28;20076;-77
2022/11/17 02:05:43;;;;;;;13.50;5.83;;;;;;;;;;4992171;28;20026;-76
2022/11/17 02:08:10;;;;;;;8.67;4.77;;;;;;;;;;4992155;28;20057;-76
2022/11/17 02:10:36;;;;;;;6.70;4.03;;;;;;;;;;4992476;28;20041;-76
2022/11/17 02:13:02;;;;;;;6.50;3.73;;;;;;;;;;4993145;28;20034;-77
2022/11/17 02:15:29;;;;;;;5.60;3.00;;;;;;;;;;4992978;28;20095;-76
2022/11/17 02:17:56;;;;;;;7.67;3.53;;;;;;;;;;4993109;28;20088;-76
2022/11/17 02:20:33;;;;;;;4.97;3.40;;;;;;;;;;4993600;28;20069;-77
2022/11/17 02:23:35;;;;;;;5.13;3.70;;;;;;;;;;4991778;28;20418;-77
2022/11/17 02:26:04;;;;;;;;;;;;;;;;;;4992382;28;20084;-76
2022/11/17 02:28:36;;;;;;;4.57;3.27;;;;;;;;;;4993223;28;19993;-76
2022/11/17 02:31:04;;;;;;;6.53;3.60;;;;;;;;;;4992712;28;20030;-76
2022/11/17 02:33:33;;;;;;;4.33;3.20;;;;;;;;;;4991418;28;20513;-75
2022/11/17 02:36:21;;;;;;;6.10;4.13;;;;;;;;;;4991510;28;20029;-78
2022/11/17 02:38:56;;;;;;;7.53;4.00;;;;;;;;;;4992706;28;20482;-78
2022/11/17 02:41:30;;;;;;;8.47;4.33;;;;;;;;;;4992288;28;20429;-77
2022/11/17 02:44:12;;;;;;;5.53;3.73;;;;;;;;;;4991352;28;20046;-77
2022/11/17 02:46:54;;;;;;;5.15;3.97;;;;;;;;;;4991374;28;20019;-78
2022/11/17 02:49:28;;;;;;;6.53;4.60;;;;;;;;;;4992122;28;20039;-78
2022/11/17 02:51:56;;;;;;;6.23;4.07;;;;;;;;;;4991057;28;20036;-77
2022/11/17 02:54:25;;;;;;;10.27;4.80;;;;;;;;;;4992685;28;20054;-78
2022/11/17 02:56:51;;;;;;;7.90;4.33;;;;;;;;;;4992179;28;20463;-77
2022/11/17 02:59:19;;;;;;;8.03;4.60;;;;;;;;;;4992851;28;20049;-77
2022/11/17 03:02:09;;;;;;;6.27;4.53;;;;;;;;;;4991670;28;20026;-77
2022/11/17 03:04:53;;;;;;;7.30;4.40;;;;;;;;;;4991968;28;20030;-76
2022/11/17 03:07:40;;;;;;;5.23;3.80;;;;;;;;;;4992450;28;20061;-77
2022/11/17 03:10:34;;;;;;;6.57;4.33;;;;;;;;;;4992628;28;20427;-77
2022/11/17 03:13:09;;;;;;;8.57;4.50;;;;;;;;;;4991486;28;20084;-77
2022/11/17 03:15:42;;;;;;;9.97;4.47;;;;;;;;;;4991562;28;20026;-78
2022/11/17 03:18:34;;;;;;;8.10;4.70;;;;;;;;;;4991346;28;20030;-78
2022/11/17 03:21:25;;;;;;;10.20;4.68;;;;;;;;;;4992706;28;20030;-77
2022/11/17 03:24:00;;;;;;;7.13;4.37;;;;;;;;;;4990805;28;20495;-77
2022/11/17 03:26:36;;;;;;;6.77;4.43;;;;;;;;;;5006104;28;20036;-77
2022/11/17 03:29:06;;;;;;;6.23;4.00;;;;;;;;;;5013920;28;20025;-78
2022/11/17 03:31:34;;;;;;;8.03;4.47;;;;;;;;;;5015112;28;20026;-77
2022/11/17 03:34:02;;;;;;;6.77;4.07;;;;;;;;;;5014970;28;20497;-77
2022/11/17 03:36:38;;;;;;;6.03;3.93;;;;;;;;;;5015134;28;20030;-77
2022/11/17 03:39:29;;;;;;;6.57;3.97;;;;;;;;;;5014533;28;20113;-77
2022/11/17 03:42:00;;;;;;;5.47;3.53;;;;;;;;;;5014869;28;20018;-78
2022/11/17 03:44:28;;;;;;;6.43;3.90;;;;;;;;;;5014606;28;20057;-78
2022/11/17 03:46:57;;;;;;;7.20;4.03;;;;;;;;;;5014156;28;20054;-78
2022/11/17 03:49:44;;;;;;;6.30;3.87;;;;;;;;;;5013364;28;20397;-78
2022/11/17 03:52:10;;;;;;;10.33;4.13;;;;;;;;;;5014907;28;20038;-77
2022/11/17 03:54:36;;;;;;;6.67;4.20;;;;;;;;;;5013281;28;20421;-77
2022/11/17 03:57:17;;;;;;;5.77;3.63;;;;;;;;;;5013823;28;20102;-77
2022/11/17 03:59:50;;;;;;;9.37;3.97;;;;;;;;;;5014272;28;20026;-78
2022/11/17 04:02:18;;;;;;;8.53;4.03;;;;;;;;;;5014334;28;20039;-78
2022/11/17 04:07:28;;;;;;;5.23;4.33;;;;;;;;;;5013979;28;20278;-78
2022/11/17 04:09:53;;;;;;;6.93;4.20;;;;;;;;;;5012820;28;20125;-78
2022/11/17 04:17:47;;;;;;;8.27;4.63;;;;;;;;;;5014167;28;20060;-77
2022/11/17 04:20:12;;;;;;;7.83;4.23;;;;;;;;;;5011463;28;20029;-77
2022/11/17 04:22:38;;;;;;;6.53;4.00;;;;;;;;;;5013723;28;20366;-77
2022/11/17 04:25:04;;;;;;;5.90;4.67;;;;;;;;;;5012323;28;20478;-77
2022/11/17 04:30:14;;;;;;;4.60;3.57;;;;;;;;;;5013654;28;20057;-78
2022/11/17 04:32:39;;;;;;;5.30;4.27;;;;;;;;;;5012240;28;20018;-77
2022/11/17 04:35:05;;;;;;;6.27;4.00;;;;;;;;;;5013067;28;20033;-78
2022/11/17 04:37:30;;;;;;;8.30;3.53;;;;;;;;;;5010979;28;20205;-77
2022/11/17 04:39:56;;;;;;;10.97;4.13;;;;;;;;;;5013070;28;20033;-78
2022/11/17 04:42:21;;;;;;;8.97;4.43;;;;;;;;;;5011798;28;20060;-78
2022/11/17 04:44:47;;;;;;;6.67;4.10;;;;;;;;;;5013424;28;20401;-77
2022/11/17 04:47:13;;;;;;;8.97;4.00;;;;;;;;;;5013579;28;20088;-77
2022/11/17 04:49:39;;;;;;;9.20;4.17;;;;;;;;;;5013657;28;20037;-76
2022/11/17 04:52:04;;;;;;;7.03;4.40;;;;;;;;;;5013400;28;20433;-77
2022/11/17 04:54:30;;;;;;;7.27;4.40;;;;;;;;;;5011483;28;20128;-77
2022/11/17 04:56:56;;;;;;;8.80;4.30;;;;;;;;;;5011676;28;20030;-76
2022/11/17 04:59:22;;;;;;;8.90;4.50;;;;;;;;;;5011332;28;20036;-77
2022/11/17 05:01:47;;;;;;;7.73;5.60;;;;;;;;;;5013123;28;20101;-77
2022/11/17 05:04:54;;;;;;;9.20;4.27;;;;;;;;;;5012018;28;20053;-77
2022/11/17 05:07:00;;;;;;;10.73;5.40;;;;;;;;;;5012452;28;20041;-78
2022/11/17 05:09:26;;;;;;;8.73;4.90;;;;;;;;;;5012413;28;20509;-78
2022/11/17 05:14:35;;;;;;;8.77;5.03;;;;;;;;;;5013105;28;20092;-78
2022/11/17 05:17:10;;;;;;;12.57;6.53;;;;;;;;;;5010314;28;20466;-77
2022/11/17 05:19:39;;;;;;;10.03;5.20;;;;;;;;;;5011896;28;20072;-77
2022/11/17 05:24:50;;;;;;;9.37;4.90;;;;;;;;;;5012246;28;20060;-78
2022/11/17 05:27:16;;;;;;;8.30;4.90;;;;;;;;;;5010598;28;20030;-77
2022/11/17 05:29:41;;;;;;;11.50;5.30;;;;;;;;;;5009947;28;20022;-77
2022/11/17 05:32:07;;;;;;;12.17;5.30;;;;;;;;;;5011689;28;20381;-77
2022/11/17 05:34:32;;;;;;;13.33;5.57;;;;;;;;;;5012638;28;20072;-78
2022/11/17 05:36:57;;;;;;;11.93;5.50;;;;;;;;;;5012397;28;20339;-78
2022/11/17 05:39:23;;;;;;;8.53;4.57;;;;;;;;;;5011312;28;20548;-78
2022/11/17 05:41:48;;;;;;;10.33;6.07;;;;;;;;;;5011755;28;20068;-78
2022/11/17 05:44:14;;;;;;;9.63;5.47;;;;;;;;;;5010176;28;20057;-78
2022/11/17 05:46:39;;;;;;;10.17;5.83;;;;;;;;;;5012811;28;20384;-79
2022/11/17 05:49:05;;;;;;;8.13;5.17;;;;;;;;;;5012162;28;20389;-77
2022/11/17 05:51:31;;;;;;;8.67;5.57;;;;;;;;;;5012671;28;20030;-78
2022/11/17 05:53:57;;;;;;;13.60;6.50;;;;;;;;;;5010958;28;20108;-78
2022/11/17 05:56:38;;;;;;;11.73;6.27;;;;;;;;;;5012586;28;20060;-76
2022/11/17 05:59:16;;;;;;;11.93;4.63;;;;;;;;;;5010905;28;20037;-78
2022/11/17 06:01:58;;;;;;;11.30;5.23;;;;;;;;;;5011265;28;20022;-78
2022/11/17 06:04:24;;;;;;;12.90;5.57;;;;;;;;;;5011171;28;20041;-77
2022/11/17 06:06:50;;;;;;;13.10;6.10;;;;;;;;;;5008484;28;20367;-77
2022/11/17 06:09:15;;;;;;;10.90;6.47;;;;;;;;;;5017078;28;20132;-76
2022/11/17 06:11:41;;;;;;;9.67;5.27;;;;;;;;;;5011120;28;20028;-78
2022/11/17 06:14:06;;;;;;;12.67;5.57;;;;;;;;;;5007200;28;20439;-78
2022/11/17 06:16:38;;;;;;;11.20;5.73;;;;;;;;;;5011662;28;20061;-78
2022/11/17 06:19:21;;;;;;;10.10;6.50;;;;;;;;;;5023531;28;20017;-76
2022/11/17 06:21:47;;;;;;;8.27;5.07;;;;;;;;;;5029769;28;20112;-77
2022/11/17 06:24:13;;;;;;;10.53;5.37;;;;;;;;;;5031307;28;20127;-77
2022/11/17 06:26:41;;;;;;;11.67;6.27;;;;;;;;;;5022319;28;20029;-78
2022/11/17 06:29:08;;;;;;;11.37;6.23;;;;;;;;;;5029613;28;20032;-76
2022/11/17 06:31:34;;;;;;;11.17;6.00;;;;;;;;;;5030681;28;20079;-76
2022/11/17 06:34:01;;;;;;;10.17;6.77;;;;;;;;;;5014359;28;20038;-78
2022/11/17 06:36:28;;;;;;;11.17;6.03;;;;;;;;;;5027724;28;20025;-76
2022/11/17 06:38:53;;;;;;;11.70;6.57;;;;;;;;;;5030488;28;20030;-78
2022/11/17 06:41:20;;;;;;;13.43;7.00;;;;;;;;;;5029832;28;20026;-77
2022/11/17 06:43:46;;;;;;;10.20;6.40;;;;;;;;;;5012450;28;20049;-76
2022/11/17 06:46:11;;;;;;;11.97;6.97;;;;;;;;;;5029522;28;20030;-77
2022/11/17 06:48:37;;;;;;;10.00;5.83;;;;;;;;;;5032214;28;20386;-77
2022/11/17 06:51:04;;;;;;;12.37;6.83;;;;;;;;;;5034881;28;20033;-79
2022/11/17 06:53:31;;;;;;;11.10;6.00;;;;;;;;;;5020723;28;20026;-78
2022/11/17 06:58:28;;;;;;;16.60;6.65;;;;;;;;;;5031019;28;20035;-76
2022/11/17 07:00:59;;;;;;;12.50;5.70;;;;;;;;;;5010400;28;20116;-78
2022/11/17 07:03:25;;;;;;;11.77;6.53;;;;;;;;;;5014036;28;20489;-78
2022/11/17 07:05:50;;;;;;;11.40;6.27;;;;;;;;;;5035484;28;20076;-77
2022/11/17 07:08:17;;;;;;;11.80;6.97;;;;;;;;;;5032155;28;20029;-78
2022/11/17 07:10:43;;;;;;;15.63;7.13;;;;;;;;;;5002180;28;20022;-79
2022/11/17 07:13:08;;;;;;;12.03;6.53;;;;;;;;;;5050546;28;20443;-78
2022/11/17 07:15:34;;;;;;;14.77;7.70;;;;;;;;;;5033345;28;20058;-79
2022/11/17 07:17:59;;;;;;;17.03;7.73;;;;;;;;;;5034113;28;20139;-77
2022/11/17 07:20:25;;;;;;;15.73;7.67;;;;;;;;;;5033003;28;20025;-77
2022/11/17 07:22:50;;;;;;;15.27;7.37;;;;;;;;;;5035114;28;20112;-79
2022/11/17 07:25:16;;;;;;;12.20;6.77;;;;;;;;;;5033742;28;20029;-78
2022/11/17 07:27:42;;;;;;;12.70;7.00;;;;;;;;;;5013376;28;20397;-77
2022/11/17 07:30:08;;;;;;;16.90;7.97;;;;;;;;;;5028249;28;20561;-78
2022/11/17 07:32:35;;;;;;;16.13;8.23;;;;;;;;;;5033470;28;20029;-78
2022/11/17 07:35:01;;;;;;;15.73;8.10;;;;;;;;;;5034085;28;20025;-79
2022/11/17 07:37:30;;;;;;;15.47;8.57;;;;;;;;;;5033976;28;20055;-77
2022/11/17 07:39:56;;;;;;;14.07;7.13;;;;;;;;;;5033213;28;20470;-79
2022/11/17 07:42:21;;;;;;;13.63;7.87;;;;;;;;;;5033800;28;20049;-77
2022/11/17 07:44:47;;;;;;;16.77;8.50;;;;;;;;;;5033202;28;20452;-78
2022/11/17 07:47:12;;;;;;;16.03;8.13;;;;;;;;;;5032418;28;20014;-78
2022/11/17 07:49:38;;;;;;;13.40;6.93;;;;;;;;;;5024284;28;20036;-78
2022/11/17 07:52:03;;;;;;;13.50;6.57;;;;;;;;;;5032179;28;20053;-78
2022/11/17 07:54:29;;;;;;;16.77;8.30;;;;;;;;;;5034284;28;20325;-77
2022/11/17 07:56:54;;;;;;;20.20;8.90;;;;;;;;;;5032973;28;20029;-79
2022/11/17 07:59:20;;;;;;;18.93;8.07;;;;;;;;;;5033983;28;20042;-77
2022/11/17 08:01:46;;;;;;;17.97;8.00;;;;;;;;;;5032579;28;20477;-78
2022/11/17 08:04:11;;;;;;;15.77;6.80;;;;;;;;;;5033648;28;20041;-76
2022/11/17 08:06:37;;;;;;;19.53;9.33;;;;;;;;;;5034147;28;20075;-77
2022/11/17 08:09:02;;;;;;;18.10;7.83;;;;;;;;;;5033745;28;20489;-77
2022/11/17 08:11:27;;;;;;;15.27;7.40;;;;;;;;;;5032636;28;20117;-78
2022/11/17 08:13:53;;;;;;;20.87;8.17;;;;;;;;;;5024767;28;20540;-79
2022/11/17 08:16:19;;;;;;;15.30;7.20;;;;;;;;;;5013669;28;20405;-79
2022/11/17 08:18:45;;;;;;;21.83;7.93;;;;;;;;;;5018643;28;20083;-77
2022/11/17 08:21:12;;;;;;;18.07;8.03;;;;;;;;;;5032605;28;20045;-77
2022/11/17 08:23:39;;;;;;;18.40;7.60;;;;;;;;;;5019271;28;20029;-78
2022/11/17 08:26:06;;;;;;;20.47;8.47;;;;;;;;;;5011853;28;20034;-79
2022/11/17 08:28:32;;;;;;;19.83;8.63;;;;;;;;;;5032668;28;20029;-79
2022/11/17 08:31:03;;;;;;;15.97;8.47;;;;;;;;;;5032057;28;20523;-78
2022/11/17 08:33:30;;;;;;;13.80;7.70;;;;;;;;;;5031421;28;20066;-78
2022/11/17 08:35:57;;;;;;;15.83;7.70;;;;;;;;;;5031576;28;20052;-79
2022/11/17 08:38:27;;;;;;;11.50;7.30;;;;;;;;;;5033081;28;20025;-79
2022/11/17 08:40:56;;;;;;;14.67;7.37;;;;;;;;;;5033218;28;20500;-78
2022/11/17 08:43:22;;;;;;;18.20;8.53;;;;;;;;;;5032739;28;20053;-79
2022/11/17 08:45:47;;;;;;;19.87;8.07;;;;;;;;;;5033173;28;20373;-80
2022/11/17 08:48:13;;;;;;;19.57;7.83;;;;;;;;;;5032205;28;20041;-78
2022/11/17 08:50:38;;;;;;;17.50;8.27;;;;;;;;;;5032445;28;20025;-76
2022/11/17 08:53:04;;;;;;;14.47;7.80;;;;;;;;;;5032832;28;20021;-79
2022/11/17 08:55:30;;;;;;;13.50;8.00;;;;;;;;;;5031869;28;20021;-76
2022/11/17 08:57:56;;;;;;;18.83;8.67;;;;;;;;;;5032917;28;20300;-76
2022/11/17 09:00:23;;;;;;;20.97;8.80;;;;;;;;;;5030364;28;20025;-77
2022/11/17 09:02:48;;;;;;;14.87;7.97;;;;;;;;;;5015942;28;20025;-77
2022/11/17 09:05:14;;;;;;;23.53;9.27;;;;;;;;;;5032305;28;20485;-78
2022/11/17 09:07:39;;;;;;;18.87;9.73;;;;;;;;;;5032289;28;20065;-78
2022/11/17 09:10:08;;;;;;;18.23;9.20;;;;;;;;;;5030592;28;20029;-79
2022/11/17 09:12:33;;;;;;;13.73;8.20;;;;;;;;;;5032450;28;20001;-77
2022/11/17 09:14:59;;;;;;;20.57;8.77;;;;;;;;;;5030363;28;20406;-80
2022/11/17 09:17:24;;;;;;;18.77;9.17;;;;;;;;;;5020894;28;20029;-77
2022/11/17 09:19:53;;;;;;;17.30;8.03;;;;;;;;;;5032224;28;20049;-80
2022/11/17 09:22:18;;;;;;;26.37;8.97;;;;;;;;;;5030419;28;20429;-78
2022/11/17 09:24:44;;;;;;;14.20;8.33;;;;;;;;;;5032369;28;20057;-77
2022/11/17 09:27:09;;;;;;;17.47;9.57;;;;;;;;;;5021006;28;20021;-78
2022/11/17 09:29:35;;;;;;;15.67;8.57;;;;;;;;;;5030823;28;20084;-78
2022/11/17 09:32:00;;;;;;;14.20;8.63;;;;;;;;;;5031239;28;20111;-78
2022/11/17 09:34:28;;;;;;;14.30;8.20;;;;;;;;;;5031898;28;20504;-77
2022/11/17 09:36:53;;;;;;;20.57;9.07;;;;;;;;;;5032184;28;20060;-78
2022/11/17 09:39:20;;;;;;;14.10;7.97;;;;;;;;;;5032387;28;20068;-78
2022/11/17 09:41:51;;;;;;;19.43;8.70;;;;;;;;;;5031915;28;20017;-81
2022/11/17 09:44:39;;;;;;;17.27;7.40;;;;;;;;;;5032443;28;20430;-78
2022/11/17 09:47:36;;;;;;;19.07;8.43;;;;;;;;;;5014134;28;20328;-78
2022/11/17 09:50:21;;;;;;;15.90;7.83;;;;;;;;;;5030498;28;20025;-78
2022/11/17 09:53:04;;;;;;;14.73;7.10;;;;;;;;;;5032341;28;20464;-77
2022/11/17 09:55:39;;;;;;;17.20;7.80;;;;;;;;;;5032321;28;20110;-78
2022/11/17 09:58:40;;;;;;;13.70;7.80;;;;;;;;;;5031625;28;20052;-80
2022/11/17 10:01:13;;;;;;;10.03;6.73;;;;;;;;;;4992502;28;20459;-77
2022/11/17 10:03:43;;;;;;;12.07;7.10;;;;;;;;;;5015119;28;20510;-78
2022/11/17 10:06:24;;;;;;;14.07;7.90;;;;;;;;;;5031458;28;20025;-78
2022/11/17 10:09:05;;;;;;;13.48;6.85;;;;;;;;;;4991387;28;20038;-79
2022/11/17 10:11:34;;;;;;;12.03;6.93;;;;;;;;;;4998832;28;20595;-78
2022/11/17 10:14:12;;;;;;;14.37;7.67;;;;;;;;;;5010374;28;20079;-75
2022/11/17 10:16:41;;;;;;;15.67;8.93;;;;;;;;;;5009554;28;20080;-77
2022/11/17 10:19:19;;;;;;;11.23;7.30;;;;;;;;;;5012055;28;20028;-78
2022/11/17 10:21:49;;;;;;;18.50;8.07;;;;;;;;;;5012111;28;20359;-79
2022/11/17 10:24:35;;;;;;;16.03;7.47;;;;;;;;;;5020090;28;20026;-79
2022/11/17 10:27:03;;;;;;;14.53;8.07;;;;;;;;;;5027529;28;20056;-79
2022/11/17 10:29:29;;;;;;;16.20;8.53;;;;;;;;;;5031233;28;20025;-77
2022/11/17 10:31:54;;;;;;;13.00;7.37;;;;;;;;;;5030843;28;20535;-77
2022/11/17 10:34:33;;;;;;;15.20;8.00;;;;;;;;;;5031806;28;20022;-77
2022/11/17 10:37:26;;;;;;;16.53;8.27;;;;;;;;;;5035308;28;20026;-79
2022/11/17 10:40:22;;;;;;;18.37;8.70;;;;;;;;;;5035638;28;20111;-77
2022/11/17 10:43:16;;;;;;;17.57;9.07;;;;;;;;;;5033505;28;20050;-79
2022/11/17 10:46:16;;;;;;;14.73;9.57;;;;;;;;;;5035828;28;20052;-77
2022/11/17 10:48:57;;;;;;;21.90;9.63;;;;;;;;;;4997303;28;20121;-77
2022/11/17 10:51:25;;;;;;;18.67;9.87;;;;;;;;;;5033489;28;20025;-78
2022/11/17 10:54:03;;;;;;;16.30;9.17;;;;;;;;;;5033500;28;20037;-77
2022/11/17 10:56:30;;;;;;;17.87;9.73;;;;;;;;;;5034573;28;20521;-77
2022/11/17 10:59:15;;;;;;;17.83;9.87;;;;;;;;;;5004416;28;20022;-77
2022/11/17 11:01:43;;;;;;;17.37;9.50;;;;;;;;;;5018011;28;20040;-79
2022/11/17 11:04:38;;;;;;;17.83;8.63;;;;;;;;;;5025142;28;20030;-77
2022/11/17 11:07:13;;;;;;;17.67;9.37;;;;;;;;;;5014709;28;20084;-78
2022/11/17 11:09:48;;;;;;;15.20;9.20;;;;;;;;;;5025563;28;20025;-77
2022/11/17 11:12:20;;;;;;;16.13;8.90;;;;;;;;;;5032290;28;20108;-76
2022/11/17 11:14:51;;;;;;;19.27;9.55;;;;;;;;;;4993977;28;20023;-78
2022/11/17 11:17:17;;;;;;;18.37;10.00;;;;;;;;;;4994898;28;20101;-77
2022/11/17 11:19:50;;;;;;;16.90;9.17;;;;;;;;;;5018274;28;20108;-77
2022/11/17 11:22:27;;;;;;;16.20;9.53;;;;;;;;;;5016408;28;20102;-78
2022/11/17 11:25:24;;;;;;;17.60;9.17;;;;;;;;;;5034845;28;20025;-77
2022/11/17 11:28:12;;;;;;;15.80;9.53;;;;;;;;;;5034338;28;20101;-78
2022/11/17 11:31:00;;;;;;;20.30;9.80;;;;;;;;;;5034315;28;20030;-77
2022/11/17 11:33:37;;;;;;;16.10;9.43;;;;;;;;;;5033869;28;20025;-77
2022/11/17 11:36:13;;;;;;;16.87;9.90;;;;;;;;;;5033969;28;20028;-80
2022/11/17 11:39:12;;;;;;;17.00;9.37;;;;;;;;;;5032707;28;20021;-79
2022/11/17 11:41:45;;;;;;;17.13;10.23;;;;;;;;;;5033811;28;20064;-80
2022/11/17 11:44:32;;;;;;;17.98;10.40;;;;;;;;;;5034065;28;20045;-79
2022/11/17 11:47:30;;;;;;;19.93;9.40;;;;;;;;;;5019247;28;20116;-78
2022/11/17 11:50:02;;;;;;;16.20;9.13;;;;;;;;;;5001574;28;20038;-79
2022/11/17 11:52:30;;;;;;;;;;;;;;;;;;5004460;28;20065;-77
2022/11/17 11:54:59;;;;;;;19.70;8.93;;;;;;;;;;5011581;28;19913;-76
2022/11/17 11:57:52;;;;;;;17.60;9.87;;;;;;;;;;5031088;28;20116;-77
2022/11/17 12:00:18;;;;;;;15.33;8.97;;;;;;;;;;5033481;28;20033;-78
2022/11/17 12:03:05;;;;;;;136.30;67.97;;;;;;;;;;5033332;28;20053;-77
2022/11/17 12:05:40;;;;;;;24.13;11.30;;;;;;;;;;5032349;28;20473;-77
2022/11/17 12:08:34;;;;;;;13.77;8.73;;;;;;;;;;5021902;28;20033;-77
2022/11/17 12:11:59;;;;;;;18.93;10.93;;;;;;;;;;5008482;28;20118;-78
2022/11/17 12:13:52;;;;;;;23.57;11.33;;;;;;;;;;5033421;28;20095;-76
2022/11/17 12:16:26;;;;;;;15.43;9.60;;;;;;;;;;5031175;28;20028;-77
2022/11/17 12:18:51;;;;;;;19.23;9.83;;;;;;;;;;5032697;28;20108;-78
2022/11/17 12:21:24;;;;;;;18.30;10.57;;;;;;;;;;5032694;28;20057;-79
2022/11/17 12:24:09;;;;;;;15.50;9.33;;;;;;;;;;5031375;28;20465;-77
2022/11/17 12:26:34;;;;;;;16.93;9.60;;;;;;;;;;5021543;28;20545;-78
2022/11/17 12:29:18;;;;;;;21.67;10.13;;;;;;;;;;5019626;28;20027;-80
2022/11/17 12:31:45;;;;;;;15.98;10.10;;;;;;;;;;5033087;28;20022;-77
2022/11/17 12:34:36;;;;;;;14.93;9.63;;;;;;;;;;5032810;28;20029;-78
2022/11/17 12:37:25;;;;;;;17.02;10.10;;;;;;;;;;4996144;28;20065;-76
2022/11/17 12:39:56;;;;;;;18.63;11.03;;;;;;;;;;5018349;28;20067;-77
2022/11/17 12:42:21;;;;;;;22.63;12.32;;;;;;;;;;5018426;28;20050;-76
2022/11/17 12:45:05;;;;;;;16.03;10.40;;;;;;;;;;5031689;28;20385;-78
2022/11/17 12:47:37;;;;;;;23.10;11.67;;;;;;;;;;5013315;28;20057;-78
2022/11/17 12:50:05;;;;;;;25.13;12.75;;;;;;;;;;5012022;28;20040;-78
2022/11/17 12:52:57;;;;;;;21.57;12.23;;;;;;;;;;5030101;28;20063;-78
2022/11/17 12:55:44;;;;;;;18.33;11.20;;;;;;;;;;5032479;28;20080;-77
2022/11/17 12:58:37;;;;;;;23.02;10.65;;;;;;;;;;5030711;28;20052;-79
2022/11/17 13:01:15;;;;;;;23.08;12.25;;;;;;;;;;5007128;28;20105;-76
2022/11/17 13:04:07;;;;;;;20.63;11.97;;;;;;;;;;5031968;28;20407;-79
2022/11/17 13:06:32;;;;;;;20.55;11.68;;;;;;;;;;5033748;28;20052;-78
2022/11/17 13:09:00;;;;;;;18.03;11.50;;;;;;;;;;5032329;28;20025;-78
2022/11/17 13:11:27;;;;;;;22.52;11.95;;;;;;;;;;5031130;28;20115;-78
2022/11/17 13:14:26;;;;;;;20.23;12.27;;;;;;;;;;5032393;28;20051;-78
2022/11/17 13:16:52;;;;;;;20.73;11.47;;;;;;;;;;5026149;28;20128;-77
2022/11/17 13:19:36;;;;;;;20.77;12.67;;;;;;;;;;5032320;28;20069;-77
2022/11/17 13:22:05;;;;;;;22.60;12.20;;;;;;;;;;5030867;28;20032;-77
2022/11/17 13:24:36;;;;;;;19.77;12.03;;;;;;;;;;5032370;28;20082;-78
2022/11/17 13:27:06;;;;;;;23.20;13.03;;;;;;;;;;5032232;28;20032;-78
2022/11/17 13:29:32;;;;;;;19.33;11.93;;;;;;;;;;5032399;28;20104;-78
2022/11/17 13:32:15;;;;;;;20.53;12.27;;;;;;;;;;5032033;28;20446;-77
2022/11/17 13:34:46;;;;;;;21.37;12.57;;;;;;;;;;5032130;28;20051;-76
2022/11/17 13:37:18;;;;;;;24.85;14.25;;;;;;;;;;5030914;28;20446;-77
2022/11/17 13:40:18;;;;;;;20.25;13.25;;;;;;;;;;5031521;28;20083;-77
2022/11/17 13:42:45;;;;;;;24.50;14.10;;;;;;;;;;5031669;28;20045;-79
2022/11/17 13:45:13;;;;;;;23.33;13.90;;;;;;;;;;5031090;28;20108;-76
2022/11/17 13:47:44;;;;;;;23.63;14.27;;;;;;;;;;5018761;28;20117;-78
2022/11/17 13:50:28;;;;;;;19.97;13.27;;;;;;;;;;5011144;28;20034;-77
2022/11/17 13:53:04;;;;;;;24.17;14.27;;;;;;;;;;4992764;28;20025;-80
2022/11/17 13:55:31;;;;;;;26.90;15.10;;;;;;;;;;4992948;28;20103;-78
2022/11/17 13:58:06;;;;;;;28.20;15.37;;;;;;;;;;4992829;28;20098;-77
2022/11/17 14:00:33;;;;;;;29.47;14.17;;;;;;;;;;5027636;28;20025;-79
2022/11/17 14:03:25;;;;;;;24.63;14.60;;;;;;;;;;5013113;28;20057;-77
2022/11/17 14:05:55;;;;;;;26.90;15.68;;;;;;;;;;5010578;28;20052;-78
2022/11/17 14:08:28;;;;;;;28.13;15.40;;;;;;;;;;5011059;28;20044;-77
2022/11/17 14:11:08;;;;;;;29.33;15.40;;;;;;;;;;5031519;28;20022;-79
2022/11/17 14:13:43;;;;;;;30.93;14.77;;;;;;;;;;5028463;28;20032;-79
2022/11/17 14:16:19;;;;;;;29.77;16.00;;;;;;;;;;5029721;28;20028;-77
2022/11/17 14:18:58;;;;;;;30.30;15.03;;;;;;;;;;5006679;28;20478;-78
2022/11/17 14:21:25;;;;;;;31.67;14.80;;;;;;;;;;4991721;28;20929;-79
2022/11/17 14:24:05;;;;;;;28.23;14.53;;;;;;;;;;5006503;28;20033;-79
2022/11/17 14:26:30;;;;;;;30.90;15.60;;;;;;;;;;5000571;28;20034;-78
2022/11/17 14:29:01;;;;;;;27.07;13.90;;;;;;;;;;5016589;28;20082;-78
2022/11/17 14:31:28;;;;;;;26.90;14.17;;;;;;;;;;5016705;28;20030;-78
2022/11/17 14:33:54;;;;;;;26.13;13.70;;;;;;;;;;5010412;28;20028;-78
2022/11/17 14:36:19;;;;;;;26.23;13.17;;;;;;;;;;5011403;28;20026;-78
2022/11/17 14:38:45;;;;;;;26.10;13.87;;;;;;;;;;5031919;28;20025;-77
2022/11/17 14:41:17;;;;;;;22.20;13.20;;;;;;;;;;5029971;28;20021;-78
2022/11/17 14:43:43;;;;;;;23.37;14.03;;;;;;;;;;5031540;28;20069;-77
2022/11/17 14:46:27;;;;;;;21.63;12.03;;;;;;;;;;5029493;28;20025;-80
2022/11/17 14:48:54;;;;;;;21.30;12.53;;;;;;;;;;5030203;28;20052;-80
2022/11/17 14:51:20;;;;;;;24.87;13.90;;;;;;;;;;5029365;28;20025;-77
2022/11/17 14:53:46;;;;;;;25.00;13.23;;;;;;;;;;5030496;28;20032;-77
2022/11/17 14:56:14;;;;;;;22.50;12.10;;;;;;;;;;5030248;28;20026;-76
2022/11/17 14:58:40;;;;;;;26.53;12.07;;;;;;;;;;5030953;28;20108;-78
2022/11/17 15:01:10;;;;;;;22.57;11.47;;;;;;;;;;5029407;28;20102;-78
2022/11/17 15:03:36;;;;;;;22.80;12.07;;;;;;;;;;5028884;28;20105;-78
2022/11/17 15:06:07;;;;;;;19.43;11.13;;;;;;;;;;5031066;28;20052;-77
2022/11/17 15:08:32;;;;;;;18.63;10.20;;;;;;;;;;5009317;28;20087;-78
2022/11/17 15:10:58;;;;;;;22.03;11.30;;;;;;;;;;4990299;28;20374;-78
2022/11/17 15:13:23;;;;;;;20.13;12.23;;;;;;;;;;4991415;28;20037;-77
2022/11/17 15:15:49;;;;;;;18.27;11.27;;;;;;;;;;4990044;28;20065;-77
2022/11/17 15:18:14;;;;;;;19.80;11.23;;;;;;;;;;4974032;28;20497;-81
2022/11/17 15:20:40;;;;;;;19.50;12.27;;;;;;;;;;4993296;28;20034;-77
2022/11/17 15:23:07;;;;;;;21.63;12.83;;;;;;;;;;4994085;28;20037;-79